createdAt,value
2023-04-18T00:00:28.538Z,100327.94
2023-04-18T00:03:32.526Z,100320.50
2023-04-18T00:06:36.387Z,100321.44
2023-04-18T00:09:41.578Z,100317.22
2023-04-18T00:12:45.184Z,100321.75
2023-04-18T00:15:48.846Z,100325.44
2023-04-18T00:18:52.195Z,100323.50
2023-04-18T00:21:55.984Z,100324.28
2023-04-18T00:24:58.920Z,100326.00
2023-04-18T00:28:02.156Z,100326.28
2023-04-18T00:31:05.583Z,100291.06
2023-04-18T00:34:08.936Z,100306.06
2023-04-18T00:37:13.026Z,100334.06
2023-04-18T00:40:18.281Z,100335.78
2023-04-18T00:43:23.808Z,100331.34
2023-04-18T00:46:27.451Z,100325.94
2023-04-18T00:49:30.979Z,100312.63
2023-04-18T00:52:36.095Z,100325.47
2023-04-18T00:55:40.754Z,100332.50
2023-04-18T00:58:44.229Z,100313.50
2023-04-18T01:01:47.498Z,100324.72
2023-04-18T01:04:52.340Z,100325.00
2023-04-18T01:08:01.043Z,100325.88
2023-04-18T01:11:05.000Z,100326.66
2023-04-18T01:14:09.103Z,100326.81
2023-04-18T01:17:14.188Z,100323.53
2023-04-18T01:20:17.359Z,100333.22
2023-04-18T01:23:22.510Z,100294.56
2023-04-18T01:26:25.689Z,100329.34
2023-04-18T01:29:29.425Z,100324.91
2023-04-18T01:32:32.930Z,100335.53
2023-04-18T01:35:36.456Z,100334.56
2023-04-18T01:38:39.721Z,100321.13
2023-04-18T01:41:43.113Z,100326.53
2023-04-18T01:44:46.199Z,100331.16
2023-04-18T01:47:49.650Z,100327.31
2023-04-18T01:50:53.293Z,100333.88
2023-04-18T01:53:56.754Z,100331.38
2023-04-18T01:57:00.716Z,100315.44
2023-04-18T02:00:06.655Z,100327.59
2023-04-18T02:03:17.364Z,100314.94
2023-04-18T02:06:21.707Z,100324.13
2023-04-18T02:09:24.862Z,100327.59
2023-04-18T02:12:28.553Z,100306.56
2023-04-18T02:15:31.790Z,100320.47
2023-04-18T02:18:37.162Z,100321.25
2023-04-18T02:21:42.082Z,100318.72
2023-04-18T02:24:47.083Z,100321.59
2023-04-18T02:27:52.705Z,100326.81
2023-04-18T02:30:56.283Z,100327.00
2023-04-18T02:34:00.247Z,100319.53
2023-04-18T02:37:04.865Z,100329.13
2023-04-18T02:40:09.121Z,100336.69
2023-04-18T02:43:12.785Z,100337.62
2023-04-18T02:46:16.372Z,100331.56
2023-04-18T02:49:21.186Z,100315.53
2023-04-18T02:52:26.015Z,100332.78
2023-04-18T02:55:29.540Z,100328.34
2023-04-18T02:58:36.032Z,100335.28
2023-04-18T03:01:41.610Z,100305.78
2023-04-18T03:04:45.052Z,100336.19
2023-04-18T03:07:48.441Z,100334.34
2023-04-18T03:10:51.710Z,100337.91
2023-04-18T03:13:56.691Z,100338.97
2023-04-18T03:17:00.414Z,100342.66
2023-04-18T03:20:04.654Z,100338.97
2023-04-18T03:23:07.771Z,100336.91
2023-04-18T03:26:13.948Z,100344.94
2023-04-18T03:29:17.400Z,100347.66
2023-04-18T03:32:22.465Z,100349.59
2023-04-18T03:35:26.208Z,100322.88
2023-04-18T03:38:29.734Z,100352.41
2023-04-18T03:41:33.522Z,100348.81
2023-04-18T03:44:37.191Z,100356.94
2023-04-18T03:47:40.535Z,100358.78
2023-04-18T03:50:44.096Z,100342.59
2023-04-18T03:53:47.604Z,100346.72
2023-04-18T03:56:53.063Z,100361.78
2023-04-18T03:59:56.534Z,100357.34
2023-04-18T04:03:00.218Z,100355.50
2023-04-18T04:06:04.232Z,100364.31
2023-04-18T04:09:07.265Z,100362.56
2023-04-18T04:12:10.726Z,100362.47
2023-04-18T04:15:13.947Z,100365.97
2023-04-18T04:18:19.344Z,100371.38
2023-04-18T04:21:22.690Z,100380.16
2023-04-18T04:24:26.290Z,100381.12
2023-04-18T04:27:30.619Z,100374.53
2023-04-18T04:30:34.099Z,100380.81
2023-04-18T04:33:42.780Z,100379.94
2023-04-18T04:36:48.306Z,100372.78
2023-04-18T04:39:52.898Z,100384.28
2023-04-18T04:42:58.865Z,100374.53
2023-04-18T04:46:04.390Z,100384.75
2023-04-18T04:49:08.124Z,100382.44
2023-04-18T04:52:11.831Z,100395.81
2023-04-18T04:55:19.007Z,100403.94
2023-04-18T04:58:23.065Z,100395.59
2023-04-18T05:01:30.976Z,100397.31
2023-04-18T05:04:34.807Z,100405.91
2023-04-18T05:07:39.443Z,100396.72
2023-04-18T05:10:43.648Z,100408.12
2023-04-18T05:13:47.118Z,100412.38
2023-04-18T05:16:50.425Z,100410.31
2023-04-18T05:19:54.159Z,100411.97
2023-04-18T05:22:57.403Z,100420.66
2023-04-18T05:26:00.897Z,100425.78
2023-04-18T05:29:04.030Z,100424.28
2023-04-18T05:32:07.810Z,100423.97
2023-04-18T05:35:10.816Z,100427.03
2023-04-18T05:38:14.149Z,100434.75
2023-04-18T05:41:17.245Z,100436.19
2023-04-18T05:44:21.180Z,100426.87
2023-04-18T05:47:27.023Z,100433.50
2023-04-18T05:50:32.048Z,100428.62
2023-04-18T05:53:35.194Z,100431.03
2023-04-18T05:56:39.199Z,100430.81
2023-04-18T05:59:42.630Z,100430.59
2023-04-18T06:02:46.631Z,100429.16
2023-04-18T06:05:50.534Z,100439.78
2023-04-18T06:08:54.460Z,100436.19
2023-04-18T06:11:58.089Z,100439.34
2023-04-18T06:15:01.615Z,100437.84
2023-04-18T06:18:05.462Z,100437.53
2023-04-18T06:21:08.813Z,100445.00
2023-04-18T06:24:12.559Z,100443.81
2023-04-18T06:27:28.264Z,100449.34
2023-04-18T06:30:34.975Z,100446.63
2023-04-18T06:33:38.207Z,100454.13
2023-04-18T06:36:41.597Z,100455.44
2023-04-18T06:39:45.009Z,100450.66
2023-04-18T06:42:48.640Z,100464.13
2023-04-18T06:45:51.849Z,100453.81
2023-04-18T06:48:55.590Z,100453.78
2023-04-18T06:51:59.224Z,100458.91
2023-04-18T06:55:02.611Z,100450.63
2023-04-18T06:58:05.950Z,100456.38
2023-04-18T07:01:10.578Z,100455.09
2023-04-18T07:04:14.099Z,100456.19
2023-04-18T07:07:17.982Z,100454.81
2023-04-18T07:10:21.314Z,100466.00
2023-04-18T07:13:24.730Z,100462.75
2023-04-18T07:16:27.851Z,100468.41
2023-04-18T07:19:31.338Z,100464.94
2023-04-18T07:22:34.542Z,100468.19
2023-04-18T07:25:38.975Z,100471.22
2023-04-18T07:28:42.203Z,100470.69
2023-04-18T07:31:49.297Z,100474.37
2023-04-18T07:34:52.943Z,100477.53
2023-04-18T07:37:56.271Z,100481.41
2023-04-18T07:41:00.717Z,100472.25
2023-04-18T07:44:04.261Z,100479.22
2023-04-18T07:47:11.702Z,100472.66
2023-04-18T07:50:15.166Z,100475.88
2023-04-18T07:53:18.201Z,100479.47
2023-04-18T07:56:21.758Z,100477.19
2023-04-18T07:59:29.014Z,100480.66
2023-04-18T08:02:36.158Z,100489.62
2023-04-18T08:05:41.300Z,100480.41
2023-04-18T08:08:44.661Z,100486.06
2023-04-18T08:11:49.004Z,100493.63
2023-04-18T08:14:52.108Z,100474.03
2023-04-18T08:17:56.435Z,100484.97
2023-04-18T08:20:59.627Z,100483.97
2023-04-18T08:24:03.021Z,100473.41
2023-04-18T08:27:06.621Z,100484.03
2023-04-18T08:30:10.678Z,100483.66
2023-04-18T08:33:14.021Z,100478.41
2023-04-18T08:36:17.717Z,100496.53
2023-04-18T08:39:20.857Z,100489.88
2023-04-18T08:42:24.485Z,100486.12
2023-04-18T08:45:28.970Z,100490.06
2023-04-18T08:48:32.757Z,100494.03
2023-04-18T08:51:40.009Z,100484.63
2023-04-18T08:54:45.403Z,100477.00
2023-04-18T08:57:50.527Z,100478.16
2023-04-18T09:00:55.250Z,100492.75
2023-04-18T09:03:58.860Z,100491.78
2023-04-18T09:07:08.113Z,100495.25
2023-04-18T09:10:12.759Z,100494.13
2023-04-18T09:13:47.625Z,100492.38
2023-04-18T09:16:51.006Z,100486.94
2023-04-18T09:19:54.687Z,100487.81
2023-04-18T09:23:00.887Z,100486.56
2023-04-18T09:26:05.268Z,100475.16
2023-04-18T09:29:09.357Z,100482.53
2023-04-18T09:32:27.545Z,100485.63
2023-04-18T09:35:31.461Z,100486.38
2023-04-18T09:38:41.389Z,100487.84
2023-04-18T09:42:02.647Z,100485.03
2023-04-18T09:45:08.588Z,100492.41
2023-04-18T09:48:11.552Z,100497.72
2023-04-18T09:51:16.926Z,100474.81
2023-04-18T09:54:25.417Z,100485.47
2023-04-18T09:57:31.078Z,100474.53
2023-04-18T10:00:36.569Z,100488.31
2023-04-18T10:03:45.900Z,100494.22
2023-04-18T10:06:49.433Z,100479.88
2023-04-18T10:09:53.895Z,100489.34
2023-04-18T10:12:59.098Z,100490.47
2023-04-18T10:16:03.209Z,100478.13
2023-04-18T10:19:22.000Z,100482.22
2023-04-18T10:22:28.595Z,100475.78
2023-04-18T10:25:41.180Z,100481.72
2023-04-18T10:28:58.065Z,100475.69
2023-04-18T10:32:07.054Z,100464.94
2023-04-18T10:35:11.344Z,100475.56
2023-04-18T10:38:17.516Z,100470.22
2023-04-18T10:41:29.674Z,100469.09
2023-04-18T10:44:33.059Z,100473.72
2023-04-18T10:47:36.440Z,100473.25
2023-04-18T10:51:17.508Z,100466.88
2023-04-18T10:54:35.870Z,100467.16
2023-04-18T10:57:51.622Z,100466.22
2023-04-18T11:00:56.405Z,100469.25
2023-04-18T11:04:00.028Z,100454.00
2023-04-18T11:07:03.947Z,100461.28
2023-04-18T11:10:09.810Z,100452.69
2023-04-18T11:13:13.397Z,100452.41
2023-04-18T11:16:34.329Z,100453.81
2023-04-18T11:19:37.738Z,100452.31
2023-04-18T11:22:58.577Z,100447.94
2023-04-18T11:26:03.901Z,100448.62
2023-04-18T11:29:07.723Z,100450.25
2023-04-18T11:32:11.365Z,100449.78
2023-04-18T11:35:16.130Z,100448.47
2023-04-18T11:38:19.520Z,100448.09
2023-04-18T11:41:23.045Z,100446.19
2023-04-18T11:44:27.169Z,100451.34
2023-04-18T11:47:34.501Z,100452.66
2023-04-18T11:50:38.182Z,100448.78
2023-04-18T11:53:41.395Z,100437.56
2023-04-18T11:56:49.014Z,100438.44
2023-04-18T11:59:54.631Z,100442.28
2023-04-18T12:02:59.308Z,100435.81
2023-04-18T12:06:03.373Z,100420.63
2023-04-18T12:09:06.832Z,100435.06
2023-04-18T12:12:10.442Z,100443.84
2023-04-18T12:15:15.498Z,100433.13
2023-04-18T12:18:22.017Z,100441.81
2023-04-18T12:21:29.519Z,100435.06
2023-04-18T12:24:33.010Z,100431.22
2023-04-18T12:27:54.796Z,100419.63
2023-04-18T12:30:59.036Z,100432.50
2023-04-18T12:34:02.282Z,100439.34
2023-04-18T12:37:05.744Z,100435.69
2023-04-18T12:40:11.006Z,100438.34
2023-04-18T12:43:14.854Z,100429.22
2023-04-18T12:46:18.015Z,100435.06
2023-04-18T12:49:21.621Z,100435.22
2023-04-18T12:52:24.751Z,100436.22
2023-04-18T12:55:29.238Z,100437.28
2023-04-18T12:58:32.462Z,100431.22
2023-04-18T13:01:36.592Z,100435.78
2023-04-18T13:04:39.905Z,100436.22
2023-04-18T13:07:44.378Z,100425.50
2023-04-18T13:10:48.886Z,100431.00
2023-04-18T13:13:52.251Z,100423.19
2023-04-18T13:16:55.485Z,100432.84
2023-04-18T13:19:58.844Z,100431.81
2023-04-18T13:23:04.992Z,100428.19
2023-04-18T13:26:08.777Z,100426.75
2023-04-18T13:29:11.825Z,100425.31
2023-04-18T13:32:15.290Z,100426.59
2023-04-18T13:35:18.769Z,100434.19
2023-04-18T13:38:22.051Z,100424.25
2023-04-18T13:41:25.310Z,100432.06
2023-04-18T13:44:33.979Z,100430.13
2023-04-18T13:47:37.650Z,100432.00
2023-04-18T13:50:45.173Z,100436.31
2023-04-18T13:53:54.229Z,100438.09
2023-04-18T13:56:59.775Z,100434.44
2023-04-18T14:00:03.707Z,100439.12
2023-04-18T14:03:15.148Z,100431.44
2023-04-18T14:06:18.536Z,100417.59
2023-04-18T14:09:21.698Z,100442.91
2023-04-18T14:12:25.062Z,100435.19
2023-04-18T14:15:28.197Z,100429.87
2023-04-18T14:18:31.773Z,100426.50
2023-04-18T14:21:35.985Z,100425.59
2023-04-18T14:24:39.516Z,100432.06
2023-04-18T14:27:48.181Z,100413.69
2023-04-18T14:30:58.119Z,100411.06
2023-04-18T14:34:01.780Z,100419.63
2023-04-18T14:37:05.185Z,100413.97
2023-04-18T14:40:09.809Z,100416.53
2023-04-18T14:43:13.332Z,100422.88
2023-04-18T14:46:17.057Z,100427.16
2023-04-18T14:49:21.781Z,100418.16
2023-04-18T14:52:24.888Z,100424.09
2023-04-18T14:55:29.793Z,100424.97
2023-04-18T14:58:33.160Z,100420.63
2023-04-18T15:01:36.729Z,100419.19
2023-04-18T15:04:40.172Z,100431.44
2023-04-18T15:07:44.943Z,100424.06
2023-04-18T15:10:48.133Z,100427.22
2023-04-18T15:13:52.156Z,100420.09
2023-04-18T15:16:55.414Z,100424.72
2023-04-18T15:19:59.197Z,100429.03
2023-04-18T15:23:03.037Z,100424.16
2023-04-18T15:26:06.731Z,100424.72
2023-04-18T15:29:10.209Z,100433.63
2023-04-18T15:32:14.551Z,100419.13
2023-04-18T15:35:18.355Z,100431.88
2023-04-18T15:38:22.252Z,100429.44
2023-04-18T15:41:26.740Z,100428.09
2023-04-18T15:44:30.893Z,100426.41
2023-04-18T15:47:34.857Z,100423.53
2023-04-18T15:50:39.524Z,100424.84
2023-04-18T15:53:42.589Z,100418.19
2023-04-18T15:56:45.941Z,100416.91
2023-04-18T15:59:49.709Z,100417.75
2023-04-18T16:02:53.177Z,100425.81
2023-04-18T16:05:56.630Z,100423.25
2023-04-18T16:08:59.733Z,100424.59
2023-04-18T16:12:04.576Z,100423.31
2023-04-18T16:15:09.547Z,100426.16
2023-04-18T16:18:13.258Z,100433.59
2023-04-18T16:21:16.545Z,100439.03
2023-04-18T16:24:22.386Z,100436.97
2023-04-18T16:27:25.830Z,100443.00
2023-04-18T16:30:29.235Z,100453.75
2023-04-18T16:33:33.183Z,100453.41
2023-04-18T16:36:38.960Z,100452.94
2023-04-18T16:39:43.121Z,100456.34
2023-04-18T16:42:48.376Z,100451.84
2023-04-18T16:45:51.569Z,100458.00
2023-04-18T16:48:55.937Z,100456.50
2023-04-18T16:51:58.990Z,100458.13
2023-04-18T16:55:02.980Z,100450.81
2023-04-18T16:58:06.026Z,100458.19
2023-04-18T17:01:09.401Z,100467.56
2023-04-18T17:04:15.486Z,100469.81
2023-04-18T17:07:18.923Z,100461.94
2023-04-18T17:10:22.216Z,100467.66
2023-04-18T17:13:27.243Z,100466.69
2023-04-18T17:16:30.739Z,100467.69
2023-04-18T17:19:35.090Z,100471.34
2023-04-18T17:22:38.788Z,100479.38
2023-04-18T17:25:42.619Z,100479.25
2023-04-18T17:28:47.489Z,100476.47
2023-04-18T17:31:51.978Z,100489.62
2023-04-18T17:34:56.094Z,100487.31
2023-04-18T17:38:01.617Z,100485.84
2023-04-18T17:41:06.000Z,100482.41
2023-04-18T17:44:10.842Z,100490.28
2023-04-18T17:47:14.396Z,100497.09
2023-04-18T17:50:18.646Z,100506.44
2023-04-18T17:53:23.540Z,100499.41
2023-04-18T17:56:31.853Z,100506.47
2023-04-18T17:59:38.068Z,100509.75
2023-04-18T18:02:46.194Z,100499.41
2023-04-18T18:05:56.111Z,100508.19
2023-04-18T18:09:00.185Z,100504.31
2023-04-18T18:12:04.385Z,100510.38
2023-04-18T18:15:09.257Z,100516.44
2023-04-18T18:18:13.889Z,100512.22
2023-04-18T18:21:19.559Z,100525.78
2023-04-18T18:24:26.876Z,100515.53
2023-04-18T18:27:30.857Z,100535.53
2023-04-18T18:30:38.090Z,100538.97
2023-04-18T18:33:41.691Z,100536.06
2023-04-18T18:36:47.060Z,100546.34
2023-04-18T18:39:51.773Z,100552.75
2023-04-18T18:42:58.980Z,100561.28
2023-04-18T18:46:04.052Z,100565.28
2023-04-18T18:49:09.942Z,100568.75
2023-04-18T18:52:15.467Z,100564.00
2023-04-18T18:55:20.699Z,100569.66
2023-04-18T18:58:29.105Z,100570.62
2023-04-18T19:01:35.524Z,100573.91
2023-04-18T19:04:39.351Z,100574.44
2023-04-18T19:07:44.160Z,100576.53
2023-04-18T19:10:48.556Z,100586.84
2023-04-18T19:13:56.180Z,100577.38
2023-04-18T19:17:00.269Z,100588.78
2023-04-18T19:20:06.017Z,100579.13
2023-04-18T19:23:14.337Z,100585.53
2023-04-18T19:26:19.867Z,100591.94
2023-04-18T19:29:24.805Z,100596.37
2023-04-18T19:32:29.021Z,100605.72
2023-04-18T19:35:34.813Z,100603.31
2023-04-18T19:38:42.035Z,100595.59
2023-04-18T19:41:47.691Z,100609.38
2023-04-18T19:44:53.093Z,100604.59
2023-04-18T19:47:56.682Z,100604.28
2023-04-18T19:51:02.072Z,100602.19
2023-04-18T19:54:07.725Z,100597.97
2023-04-18T19:57:13.006Z,100600.13
2023-04-18T20:00:20.467Z,100609.56
2023-04-18T20:03:26.222Z,100603.22
2023-04-18T20:06:30.416Z,100603.06
2023-04-18T20:09:36.100Z,100602.50
2023-04-18T20:12:42.729Z,100603.44
2023-04-18T20:15:47.106Z,100603.06
2023-04-18T20:18:54.670Z,100603.56
2023-04-18T20:21:59.544Z,100598.53
2023-04-18T20:25:05.392Z,100601.94
2023-04-18T20:28:09.629Z,100603.34
2023-04-18T20:31:14.462Z,100604.34
2023-04-18T20:34:20.149Z,100608.91
2023-04-18T20:37:25.475Z,100623.87
2023-04-18T20:40:29.538Z,100618.66
2023-04-18T20:43:37.877Z,100582.28
2023-04-18T20:46:43.389Z,100629.72
2023-04-18T20:49:48.328Z,100621.38
2023-04-18T20:52:55.369Z,100618.44
2023-04-18T20:56:03.134Z,100611.06
2023-04-18T20:59:07.227Z,100621.84
2023-04-18T21:02:10.942Z,100603.69
2023-04-18T21:05:15.713Z,100611.28
2023-04-18T21:08:19.473Z,100610.37
2023-04-18T21:11:24.237Z,100598.66
2023-04-18T21:14:28.643Z,100605.81
2023-04-18T21:17:32.341Z,100612.09
2023-04-18T21:20:36.945Z,100602.53
2023-04-18T21:23:44.487Z,100604.94
2023-04-18T21:26:47.573Z,100603.91
2023-04-18T21:29:51.119Z,100601.91
2023-04-18T21:32:54.347Z,100611.97
2023-04-18T21:35:57.869Z,100608.81
2023-04-18T21:39:01.954Z,100602.81
2023-04-18T21:42:05.345Z,100589.19
2023-04-18T21:45:09.703Z,100600.50
2023-04-18T21:48:13.374Z,100595.28
2023-04-18T21:51:17.207Z,100601.75
2023-04-18T21:54:21.125Z,100595.47
2023-04-18T21:57:24.297Z,100599.13
2023-04-18T22:00:27.832Z,100592.06
2023-04-18T22:03:34.227Z,100589.84
2023-04-18T22:06:38.010Z,100582.00
2023-04-18T22:09:43.584Z,100573.09
2023-04-18T22:12:46.686Z,100575.44
2023-04-18T22:15:51.645Z,100556.47
2023-04-18T22:18:56.213Z,100568.59
2023-04-18T22:21:59.661Z,100573.31
2023-04-18T22:25:02.788Z,100540.25
2023-04-18T22:28:06.565Z,100568.75
2023-04-18T22:31:10.313Z,100566.16
2023-04-18T22:34:14.724Z,100564.81
2023-04-18T22:37:18.080Z,100556.84
2023-04-18T22:40:21.735Z,100563.16
2023-04-18T22:43:25.186Z,100556.69
2023-04-18T22:46:28.760Z,100564.47
2023-04-18T22:49:33.216Z,100555.75
2023-04-18T22:52:36.760Z,100552.97
2023-04-18T22:55:44.308Z,100547.53
2023-04-18T22:58:47.707Z,100539.84
2023-04-18T23:01:51.125Z,100546.56
2023-04-18T23:04:54.886Z,100535.31
2023-04-18T23:08:00.566Z,100529.69
2023-04-18T23:11:05.408Z,100523.47
2023-04-18T23:14:11.362Z,100510.84
2023-04-18T23:17:16.097Z,100525.28
2023-04-18T23:20:21.733Z,100509.94
2023-04-18T23:23:25.077Z,100521.34
2023-04-18T23:26:29.053Z,100519.91
2023-04-18T23:29:38.427Z,100513.81
2023-04-18T23:32:41.824Z,100514.87
2023-04-18T23:35:46.471Z,100515.97
2023-04-18T23:38:49.776Z,100500.12
2023-04-18T23:42:11.674Z,100499.75
2023-04-18T23:45:16.064Z,100492.00
2023-04-18T23:48:19.357Z,100485.16
2023-04-18T23:51:22.655Z,100493.03
2023-04-18T23:54:25.982Z,100486.31
2023-04-18T23:57:29.665Z,100483.06
